Decoded Metar for LFLN (ST.-YAN in FRANCE) (IATA:N/A) | Meteo·Mobile Aviation Weather
aviador You're here:

LFLN Decoded Metar

ST.-YAN in FRANCE
Report Time2019-07-23 03:30:00
UTC Time2019-07-23 03:55:16
Flight Rules vfr VFR
WindCalm
Visibility9999 m
Phenomena:N/A
Clouds:N/A
Expected CloudBase > 800 ft AGL from Temp-Dew spread
CeilingNone
Temp17°C (ISA +4)
Dew Point15°C (88% RH)
QNH1020 hPa
Density Alt1,217 ft
Elevation801 ft
Report Wrong Elevation
Raw Report
METAR LFLN 230330Z AUTO 00000KT CAVOK 17/15 Q1020=

Extra information for LFLN:More info

Metar Taf Metar & Taf Last 4 Metars F.Rules Stats Wind Profile Meteogram Temp Stats Airport Information Weather charts Add Link Nearby VenuesMetar ALERT Operation Metar Decoded Social comments